createdAt,value
2018-03-06T00:00:42.197Z,23.70
2018-03-06T00:03:11.044Z,24.73
2018-03-06T00:05:38.914Z,26.37
2018-03-06T00:08:06.799Z,25.40
2018-03-06T00:10:34.671Z,27.80
2018-03-06T00:13:02.742Z,25.40
2018-03-06T00:15:31.446Z,29.20
2018-03-06T00:18:00.097Z,26.40
2018-03-06T00:20:27.971Z,27.40
2018-03-06T00:22:55.781Z,25.13
2018-03-06T00:25:23.549Z,25.90
2018-03-06T00:27:51.426Z,25.63
2018-03-06T00:30:19.354Z,26.70
2018-03-06T00:32:47.300Z,25.40
2018-03-06T00:35:15.966Z,24.43
2018-03-06T00:37:43.824Z,25.83
2018-03-06T00:40:11.725Z,25.57
2018-03-06T00:42:40.425Z,25.50
2018-03-06T00:45:08.357Z,26.53
2018-03-06T00:47:36.346Z,25.73
2018-03-06T00:50:05.148Z,29.37
2018-03-06T00:52:33.034Z,27.83
2018-03-06T00:55:00.882Z,29.43
2018-03-06T00:57:29.667Z,28.77
2018-03-06T00:59:58.456Z,29.77
2018-03-06T01:02:26.410Z,28.93
2018-03-06T01:04:55.108Z,27.50
2018-03-06T01:07:23.694Z,29.40
2018-03-06T01:09:52.273Z,28.77
2018-03-06T01:12:20.938Z,29.17
2018-03-06T01:14:48.731Z,27.07
2018-03-06T01:17:16.575Z,28.83
2018-03-06T01:19:45.124Z,28.10
2018-03-06T01:22:13.023Z,27.83
2018-03-06T01:24:40.890Z,28.97
2018-03-06T01:27:09.603Z,30.80
2018-03-06T01:29:38.266Z,28.47
2018-03-06T01:32:06.829Z,28.23
2018-03-06T01:34:34.812Z,29.27
2018-03-06T01:37:02.996Z,29.13
2018-03-06T01:39:30.957Z,30.17
2018-03-06T01:41:59.552Z,30.57
2018-03-06T01:44:28.142Z,30.60
2018-03-06T01:46:56.197Z,28.03
2018-03-06T01:49:24.148Z,33.17
2018-03-06T01:51:59.742Z,33.17
2018-03-06T01:54:27.599Z,33.87
2018-03-06T01:56:55.444Z,29.60
2018-03-06T01:59:23.271Z,30.07
2018-03-06T02:01:51.075Z,31.53
2018-03-06T02:04:19.680Z,29.87
2018-03-06T02:06:48.233Z,31.50
2018-03-06T02:09:16.104Z,29.20
2018-03-06T02:11:44.059Z,33.70
2018-03-06T02:14:27.044Z,33.47
2018-03-06T02:16:54.939Z,32.27
2018-03-06T02:19:22.795Z,33.43
2018-03-06T02:21:50.807Z,33.50
2018-03-06T02:24:19.485Z,35.10
2018-03-06T02:26:48.160Z,34.67
2018-03-06T02:29:16.019Z,35.10
2018-03-06T02:31:44.004Z,36.03
2018-03-06T02:34:12.719Z,32.77
2018-03-06T02:36:40.494Z,32.50
2018-03-06T02:39:08.417Z,36.30
2018-03-06T02:41:37.109Z,31.70
2018-03-06T02:44:05.781Z,33.37
2018-03-06T02:46:33.748Z,33.10
2018-03-06T02:49:01.828Z,33.33
2018-03-06T02:51:30.440Z,31.27
2018-03-06T02:53:58.473Z,31.67
2018-03-06T02:56:26.271Z,31.97
2018-03-06T02:59:05.691Z,33.40
2018-03-06T03:01:34.449Z,31.57
2018-03-06T03:04:02.204Z,32.40
2018-03-06T03:06:30.198Z,33.27
2018-03-06T03:08:58.262Z,33.67
2018-03-06T03:11:26.038Z,30.97
2018-03-06T03:13:53.993Z,32.50
2018-03-06T03:16:22.475Z,34.13
2018-03-06T03:18:51.263Z,39.70
2018-03-06T03:21:19.253Z,39.50
2018-03-06T03:23:48.630Z,40.30
2018-03-06T03:26:16.520Z,43.10
2018-03-06T03:28:45.117Z,43.97
2018-03-06T03:31:13.896Z,45.30
2018-03-06T03:33:42.681Z,47.63
2018-03-06T03:36:11.338Z,46.20
2018-03-06T03:38:39.156Z,50.87
2018-03-06T03:41:07.078Z,47.07
2018-03-06T03:43:34.917Z,47.33
2018-03-06T03:46:02.723Z,41.50
2018-03-06T03:48:31.510Z,44.00
2018-03-06T03:51:00.036Z,44.00
2018-03-06T03:53:27.931Z,43.00
2018-03-06T03:55:56.284Z,44.10
2018-03-06T03:58:24.177Z,44.50
2018-03-06T04:00:51.980Z,42.47
2018-03-06T04:03:21.012Z,43.83
2018-03-06T04:05:49.034Z,47.23
2018-03-06T04:08:16.840Z,47.87
2018-03-06T04:10:44.628Z,52.83
2018-03-06T04:13:12.440Z,49.17
2018-03-06T04:15:40.999Z,50.33
2018-03-06T04:18:08.783Z,51.67
2018-03-06T04:20:42.694Z,48.10
2018-03-06T04:23:12.326Z,53.30
2018-03-06T04:25:42.276Z,53.60
2018-03-06T04:28:12.254Z,50.30
2018-03-06T04:30:40.381Z,55.57
2018-03-06T04:33:08.268Z,52.40
2018-03-06T04:35:36.233Z,54.07
2018-03-06T04:38:04.919Z,57.90
2018-03-06T04:40:32.881Z,57.70
2018-03-06T04:43:00.776Z,60.50
2018-03-06T04:45:28.773Z,57.80
2018-03-06T04:47:56.612Z,55.27
2018-03-06T04:50:25.364Z,66.80
2018-03-06T04:52:53.254Z,61.83
2018-03-06T04:55:21.910Z,64.37
2018-03-06T04:57:49.800Z,70.00
2018-03-06T05:00:18.478Z,74.80
2018-03-06T05:02:47.149Z,74.50
2018-03-06T05:05:15.876Z,77.63
2018-03-06T05:07:59.573Z,76.77
2018-03-06T05:10:27.687Z,84.80
2018-03-06T05:12:56.241Z,85.30
2018-03-06T05:15:24.105Z,82.53
2018-03-06T05:17:51.993Z,86.13
2018-03-06T05:20:20.785Z,83.10
2018-03-06T05:22:49.758Z,84.70
2018-03-06T05:25:18.429Z,92.13
2018-03-06T05:27:46.304Z,88.13
2018-03-06T05:30:14.091Z,88.37
2018-03-06T05:32:41.966Z,93.33
2018-03-06T05:35:09.725Z,87.83
2018-03-06T05:37:38.383Z,92.33
2018-03-06T05:40:06.343Z,87.83
2018-03-06T05:42:34.166Z,89.93
2018-03-06T05:45:02.179Z,83.77
2018-03-06T05:47:30.032Z,86.63
2018-03-06T05:49:58.039Z,91.40
2018-03-06T05:52:26.577Z,84.90
2018-03-06T05:54:54.583Z,93.97
2018-03-06T05:57:23.153Z,106.37
2018-03-06T05:59:51.322Z,110.80
2018-03-06T06:02:19.188Z,104.90
2018-03-06T06:04:47.067Z,98.83
2018-03-06T06:07:14.888Z,94.30
2018-03-06T06:09:42.650Z,93.23
2018-03-06T06:12:10.580Z,99.00
2018-03-06T06:14:38.430Z,89.30
2018-03-06T06:17:06.328Z,95.40
2018-03-06T06:19:35.075Z,96.07
2018-03-06T06:22:03.038Z,91.47
2018-03-06T06:24:31.003Z,99.00
2018-03-06T06:26:58.755Z,93.30
2018-03-06T06:29:26.560Z,90.50
2018-03-06T06:31:54.527Z,86.00
2018-03-06T06:34:22.386Z,92.07
2018-03-06T06:36:50.255Z,90.90
2018-03-06T06:39:18.020Z,85.17
2018-03-06T06:41:45.977Z,90.33
2018-03-06T06:44:13.704Z,90.77
2018-03-06T06:46:41.634Z,88.00
2018-03-06T06:49:09.585Z,101.83
2018-03-06T06:51:37.570Z,100.57
2018-03-06T06:54:05.367Z,94.17
2018-03-06T06:56:34.092Z,95.03
2018-03-06T06:59:01.975Z,84.43
2018-03-06T07:01:29.751Z,87.97
2018-03-06T07:03:57.588Z,93.33
2018-03-06T07:06:25.370Z,91.40
2018-03-06T07:08:53.319Z,92.07
2018-03-06T07:11:21.426Z,95.63
2018-03-06T07:13:49.372Z,90.17
2018-03-06T07:16:17.163Z,86.90
2018-03-06T07:18:45.073Z,92.40
2018-03-06T07:21:13.184Z,86.80
2018-03-06T07:23:42.253Z,89.83
2018-03-06T07:26:10.244Z,81.33
2018-03-06T07:28:38.507Z,90.00
2018-03-06T07:31:06.373Z,87.83
2018-03-06T07:33:34.274Z,90.60
2018-03-06T07:36:02.822Z,90.40
2018-03-06T07:38:31.313Z,90.93
2018-03-06T07:40:59.999Z,99.37
2018-03-06T07:43:28.056Z,96.53
2018-03-06T07:45:55.948Z,98.60
2018-03-06T07:48:23.790Z,95.80
2018-03-06T07:50:51.574Z,101.70
2018-03-06T07:53:19.651Z,96.80
2018-03-06T07:55:47.647Z,97.73
2018-03-06T07:58:16.301Z,99.50
2018-03-06T08:00:44.143Z,98.57
2018-03-06T08:03:12.029Z,86.57
2018-03-06T08:05:39.877Z,93.33
2018-03-06T08:08:07.759Z,91.90
2018-03-06T08:10:35.635Z,99.67
2018-03-06T08:13:03.503Z,94.77
2018-03-06T08:15:31.550Z,88.67
2018-03-06T08:17:59.427Z,85.90
2018-03-06T08:20:27.285Z,87.07
2018-03-06T08:22:55.169Z,94.30
2018-03-06T08:25:23.047Z,88.07
2018-03-06T08:27:50.854Z,89.17
2018-03-06T08:30:19.791Z,91.10
2018-03-06T08:32:47.748Z,117.40
2018-03-06T08:35:15.655Z,90.30
2018-03-06T08:37:44.266Z,92.10
2018-03-06T08:40:12.465Z,95.50
2018-03-06T08:42:40.275Z,86.70
2018-03-06T08:45:08.810Z,90.03
2018-03-06T08:47:36.692Z,81.23
2018-03-06T08:50:04.558Z,81.87
2018-03-06T08:52:32.521Z,81.70
2018-03-06T08:55:00.398Z,92.20
2018-03-06T08:57:28.719Z,88.37
2018-03-06T08:59:57.391Z,85.40
2018-03-06T09:02:25.309Z,82.43
2018-03-06T09:04:53.192Z,84.77
2018-03-06T09:07:21.256Z,96.90
2018-03-06T09:09:49.166Z,90.17
2018-03-06T09:12:17.804Z,84.70
2018-03-06T09:14:45.699Z,82.47
2018-03-06T09:17:13.495Z,86.73
2018-03-06T09:19:41.309Z,85.87
2018-03-06T09:22:09.375Z,77.33
2018-03-06T09:24:37.143Z,90.87
2018-03-06T09:27:04.997Z,85.73
2018-03-06T09:29:33.076Z,85.90
2018-03-06T09:32:01.153Z,82.43
2018-03-06T09:34:29.161Z,82.90
2018-03-06T09:36:57.709Z,80.00
2018-03-06T09:39:25.705Z,79.67
2018-03-06T09:42:01.904Z,82.87
2018-03-06T09:44:31.023Z,81.47
2018-03-06T09:46:58.900Z,78.77
2018-03-06T09:49:27.626Z,77.60
2018-03-06T09:51:56.980Z,83.03
2018-03-06T09:54:24.879Z,85.47
2018-03-06T09:56:52.846Z,79.67
2018-03-06T09:59:20.681Z,84.17
2018-03-06T10:01:48.672Z,102.57
2018-03-06T10:04:17.059Z,82.10
2018-03-06T10:06:45.036Z,144.40
2018-03-06T10:09:14.626Z,135.73
2018-03-06T10:11:42.628Z,130.20
2018-03-06T10:14:10.627Z,88.77
2018-03-06T10:16:39.330Z,76.90
2018-03-06T10:19:07.191Z,75.73
2018-03-06T10:21:35.284Z,83.77
2018-03-06T10:24:03.149Z,78.03
2018-03-06T10:26:30.952Z,79.43
2018-03-06T10:28:58.768Z,80.50
2018-03-06T10:31:26.812Z,82.83
2018-03-06T10:33:54.716Z,83.93
2018-03-06T10:36:22.686Z,80.67
2018-03-06T10:38:50.637Z,80.17
2018-03-06T10:41:18.645Z,82.83
2018-03-06T10:43:46.675Z,82.87
2018-03-06T10:46:14.768Z,77.70
2018-03-06T10:48:42.631Z,76.20
2018-03-06T10:51:10.786Z,83.07
2018-03-06T10:53:38.538Z,79.77
2018-03-06T10:56:06.453Z,81.47
2018-03-06T10:58:34.425Z,82.20
2018-03-06T11:01:03.162Z,72.23
2018-03-06T11:03:31.216Z,73.20
2018-03-06T11:05:58.979Z,73.97
2018-03-06T11:08:27.370Z,76.40
2018-03-06T11:10:55.301Z,75.90
2018-03-06T11:13:23.949Z,75.80
2018-03-06T11:15:51.909Z,160.43
2018-03-06T11:18:20.491Z,81.50
2018-03-06T11:20:48.427Z,78.03
2018-03-06T11:23:16.252Z,78.20
2018-03-06T11:25:44.237Z,70.60
2018-03-06T11:28:14.079Z,69.20
2018-03-06T11:30:41.895Z,74.20
2018-03-06T11:33:10.046Z,67.83
2018-03-06T11:35:37.963Z,72.40
2018-03-06T11:38:06.806Z,74.43
2018-03-06T11:40:35.510Z,71.30
2018-03-06T11:43:03.293Z,67.70
2018-03-06T11:45:33.702Z,68.30
2018-03-06T11:48:01.757Z,68.20
2018-03-06T11:50:29.579Z,65.20
2018-03-06T11:52:57.617Z,68.50
2018-03-06T11:55:25.538Z,66.63
2018-03-06T11:57:53.626Z,61.63
2018-03-06T12:00:26.018Z,59.00
2018-03-06T12:02:53.965Z,58.30
2018-03-06T12:05:22.261Z,54.80
2018-03-06T12:07:50.633Z,53.97
2018-03-06T12:10:18.801Z,53.00
2018-03-06T12:12:46.777Z,57.43
2018-03-06T12:15:14.787Z,57.03
2018-03-06T12:17:42.613Z,56.13
2018-03-06T12:20:10.782Z,58.50
2018-03-06T12:22:38.657Z,52.67
2018-03-06T12:25:06.534Z,52.20
2018-03-06T12:27:34.474Z,52.53
2018-03-06T12:30:02.528Z,60.00
2018-03-06T12:32:31.459Z,51.57
2018-03-06T12:34:59.617Z,52.33
2018-03-06T12:37:28.173Z,54.80
2018-03-06T12:39:56.078Z,53.90
2018-03-06T12:42:24.030Z,53.37
2018-03-06T12:44:52.015Z,54.03
2018-03-06T12:47:19.885Z,55.20
2018-03-06T12:49:47.800Z,57.33
2018-03-06T12:52:15.738Z,55.43
2018-03-06T12:54:43.893Z,52.83
2018-03-06T12:57:12.161Z,56.70
2018-03-06T12:59:40.123Z,57.40
2018-03-06T13:02:07.987Z,58.10
2018-03-06T13:04:35.764Z,59.07
2018-03-06T13:07:03.837Z,59.53
2018-03-06T13:09:31.624Z,58.67
2018-03-06T13:12:00.318Z,60.57
2018-03-06T13:14:29.369Z,54.83
2018-03-06T13:16:57.455Z,57.33
2018-03-06T13:19:25.361Z,54.80
2018-03-06T13:21:53.298Z,59.43
2018-03-06T13:24:21.484Z,59.50
2018-03-06T13:26:50.143Z,54.03
2018-03-06T13:29:18.014Z,53.57
2018-03-06T13:31:45.912Z,50.20
2018-03-06T13:34:14.530Z,50.23
2018-03-06T13:36:42.432Z,47.80
2018-03-06T13:39:10.275Z,46.20
2018-03-06T13:41:38.271Z,42.00
2018-03-06T13:44:06.230Z,37.70
2018-03-06T13:46:34.586Z,39.17
2018-03-06T13:49:02.496Z,33.43
2018-03-06T13:51:30.703Z,29.70
2018-03-06T13:53:58.838Z,33.93
2018-03-06T13:56:27.834Z,33.70
2018-03-06T13:58:55.789Z,37.03
2018-03-06T14:01:23.868Z,40.73
2018-03-06T14:03:52.559Z,42.40
2018-03-06T14:06:20.411Z,42.40
2018-03-06T14:08:48.264Z,47.30
2018-03-06T14:11:16.298Z,49.10
2018-03-06T14:13:44.406Z,45.80
2018-03-06T14:16:12.475Z,52.73
2018-03-06T14:18:40.652Z,49.37
2018-03-06T14:21:08.560Z,48.60
2018-03-06T14:23:37.218Z,55.20
2018-03-06T14:26:05.190Z,49.63
2018-03-06T14:28:33.857Z,53.30
2018-03-06T14:31:02.944Z,52.73
2018-03-06T14:33:30.994Z,51.50
2018-03-06T14:35:58.837Z,52.40
2018-03-06T14:38:28.115Z,52.27
2018-03-06T14:40:56.055Z,49.07
2018-03-06T14:43:24.027Z,46.87
2018-03-06T14:45:51.887Z,44.10
2018-03-06T14:48:19.856Z,44.30
2018-03-06T14:50:47.603Z,45.07
2018-03-06T14:53:15.375Z,46.07
2018-03-06T14:55:43.477Z,40.90
2018-03-06T14:58:11.269Z,41.27
2018-03-06T15:00:39.832Z,43.90
2018-03-06T15:03:07.633Z,41.47
2018-03-06T15:05:35.665Z,45.83
2018-03-06T15:08:04.145Z,42.23
2018-03-06T15:10:33.447Z,41.80
2018-03-06T15:13:03.076Z,48.70
2018-03-06T15:15:31.710Z,40.30
2018-03-06T15:17:59.714Z,39.83
2018-03-06T15:20:29.205Z,43.17
2018-03-06T15:22:57.122Z,44.97
2018-03-06T15:25:26.086Z,42.53
2018-03-06T15:27:53.932Z,41.47
2018-03-06T15:30:21.914Z,42.47
2018-03-06T15:32:49.860Z,42.37
2018-03-06T15:35:17.822Z,47.03
2018-03-06T15:37:46.341Z,41.43
2018-03-06T15:40:14.295Z,40.13
2018-03-06T15:42:42.191Z,43.77
2018-03-06T15:45:11.064Z,47.70
2018-03-06T15:47:38.909Z,45.93
2018-03-06T15:50:06.767Z,40.83
2018-03-06T15:52:34.623Z,42.43
2018-03-06T15:55:02.448Z,44.43
2018-03-06T15:57:31.307Z,55.77
2018-03-06T16:00:00.097Z,47.90
2018-03-06T16:02:28.476Z,45.37
2018-03-06T16:04:56.449Z,41.53
2018-03-06T16:07:24.698Z,47.10
2018-03-06T16:09:52.681Z,44.90
2018-03-06T16:12:21.553Z,46.93
2018-03-06T16:14:49.754Z,43.40
2018-03-06T16:17:17.625Z,43.80
2018-03-06T16:19:45.570Z,42.63
2018-03-06T16:22:13.538Z,40.70
2018-03-06T16:24:41.640Z,38.00
2018-03-06T16:27:09.751Z,37.93
2018-03-06T16:29:37.679Z,40.73
2018-03-06T16:32:05.648Z,38.73
2018-03-06T16:34:34.308Z,39.00
2018-03-06T16:37:02.290Z,39.80
2018-03-06T16:39:30.496Z,38.83
2018-03-06T16:41:59.217Z,38.77
2018-03-06T16:44:27.336Z,35.43
2018-03-06T16:46:57.559Z,34.67
2018-03-06T16:49:25.713Z,32.30
2018-03-06T16:51:55.004Z,32.77
2018-03-06T16:54:23.033Z,34.03
2018-03-06T16:56:51.449Z,29.10
2018-03-06T16:59:19.291Z,31.13
2018-03-06T17:01:47.099Z,31.30
2018-03-06T17:04:15.272Z,29.93
2018-03-06T17:06:43.164Z,29.90
2018-03-06T17:09:10.998Z,29.77
2018-03-06T17:11:39.338Z,32.03
2018-03-06T17:14:07.227Z,30.00
2018-03-06T17:16:35.094Z,30.43
2018-03-06T17:19:07.074Z,31.60
2018-03-06T17:21:37.233Z,31.43
2018-03-06T17:24:06.880Z,36.40
2018-03-06T17:26:37.725Z,34.30
2018-03-06T17:29:06.681Z,33.83
2018-03-06T17:31:34.808Z,36.90
2018-03-06T17:34:09.667Z,40.70
2018-03-06T17:36:37.774Z,42.53
2018-03-06T17:39:05.968Z,59.07
2018-03-06T17:41:33.829Z,44.13
2018-03-06T17:44:01.878Z,43.00
2018-03-06T17:46:31.159Z,44.27
2018-03-06T17:48:59.986Z,43.50
2018-03-06T17:51:28.398Z,42.47
2018-03-06T17:53:57.041Z,42.70
2018-03-06T17:56:25.026Z,42.20
2018-03-06T17:58:53.204Z,41.53
2018-03-06T18:01:21.367Z,41.97
2018-03-06T18:03:49.186Z,43.63
2018-03-06T18:06:17.960Z,43.07
2018-03-06T18:08:46.198Z,41.13
2018-03-06T18:11:14.289Z,41.90
2018-03-06T18:13:42.151Z,37.70
2018-03-06T18:16:10.617Z,42.57
2018-03-06T18:18:38.945Z,40.77
2018-03-06T18:21:06.985Z,39.80
2018-03-06T18:23:34.757Z,41.40
2018-03-06T18:26:03.103Z,40.23
2018-03-06T18:28:31.175Z,42.97
2018-03-06T18:30:59.533Z,39.30
2018-03-06T18:33:28.139Z,40.30
2018-03-06T18:36:00.141Z,36.50
2018-03-06T18:38:29.615Z,35.87
2018-03-06T18:40:58.332Z,35.37
2018-03-06T18:43:27.593Z,35.87
2018-03-06T18:45:55.699Z,39.30
2018-03-06T18:48:23.632Z,37.07
2018-03-06T18:51:04.312Z,35.07
2018-03-06T18:53:32.179Z,33.50
2018-03-06T18:56:00.073Z,34.53
2018-03-06T18:58:29.025Z,41.43
2018-03-06T19:01:09.521Z,40.27
2018-03-06T19:03:49.433Z,39.90
2018-03-06T19:06:24.387Z,34.17
2018-03-06T19:08:52.539Z,33.67
2018-03-06T19:11:20.561Z,34.30
2018-03-06T19:13:48.792Z,28.43
2018-03-06T19:16:16.975Z,27.40
2018-03-06T19:18:45.225Z,27.80
2018-03-06T19:21:13.229Z,30.40
2018-03-06T19:23:41.239Z,26.90
2018-03-06T19:26:09.357Z,28.33
2018-03-06T19:28:37.193Z,27.67
2018-03-06T19:31:05.142Z,30.40
2018-03-06T19:33:33.358Z,29.60
2018-03-06T19:36:02.275Z,26.90
2018-03-06T19:38:30.577Z,22.10
2018-03-06T19:40:59.900Z,21.03
2018-03-06T19:43:28.414Z,23.60
2018-03-06T19:45:56.682Z,21.57
2018-03-06T19:48:25.577Z,22.27
2018-03-06T19:50:53.881Z,24.60
2018-03-06T19:53:22.228Z,23.00
2018-03-06T19:55:51.424Z,24.00
2018-03-06T19:58:20.344Z,21.90
2018-03-06T20:00:48.593Z,24.80
2018-03-06T20:03:18.328Z,24.90
2018-03-06T20:05:46.123Z,24.10
2018-03-06T20:08:14.888Z,25.80
2018-03-06T20:10:44.157Z,26.40
2018-03-06T20:13:13.724Z,32.47
2018-03-06T20:15:41.934Z,35.77
2018-03-06T20:18:10.211Z,35.30
2018-03-06T20:20:38.779Z,44.10
2018-03-06T20:23:08.071Z,41.70
2018-03-06T20:25:41.745Z,44.70
2018-03-06T20:28:10.930Z,47.00
2018-03-06T20:30:57.330Z,45.77
2018-03-06T20:33:25.797Z,46.57
2018-03-06T20:35:53.861Z,45.37
2018-03-06T20:38:27.415Z,39.63
2018-03-06T20:40:55.316Z,39.20
2018-03-06T20:43:23.591Z,39.33
2018-03-06T20:45:57.309Z,35.60
2018-03-06T20:48:25.189Z,36.50
2018-03-06T20:50:53.163Z,37.73
2018-03-06T20:53:27.178Z,34.00
2018-03-06T20:55:55.808Z,33.60
2018-03-06T20:58:24.929Z,34.90
2018-03-06T21:00:53.123Z,32.50
2018-03-06T21:03:22.822Z,26.37
2018-03-06T21:05:50.685Z,25.40
2018-03-06T21:08:18.760Z,24.10
2018-03-06T21:10:46.716Z,22.40
2018-03-06T21:13:15.011Z,22.37
2018-03-06T21:15:43.264Z,19.67
2018-03-06T21:18:11.249Z,20.43
2018-03-06T21:20:39.225Z,20.27
2018-03-06T21:23:08.511Z,18.80
2018-03-06T21:25:37.207Z,21.60
2018-03-06T21:28:05.177Z,19.20
2018-03-06T21:30:32.969Z,18.53
2018-03-06T21:33:01.817Z,18.73
2018-03-06T21:35:29.882Z,20.83
2018-03-06T21:37:58.361Z,19.50
2018-03-06T21:40:26.443Z,20.13
2018-03-06T21:42:54.188Z,18.63
2018-03-06T21:45:22.188Z,18.17
2018-03-06T21:47:50.955Z,14.77
2018-03-06T21:50:18.731Z,17.90
2018-03-06T21:52:46.586Z,17.63
2018-03-06T21:55:14.654Z,15.90
2018-03-06T21:57:42.949Z,18.03
2018-03-06T22:00:11.194Z,17.63
2018-03-06T22:02:39.490Z,15.27
2018-03-06T22:05:07.599Z,16.30
2018-03-06T22:07:36.174Z,15.77
2018-03-06T22:10:04.022Z,16.20
2018-03-06T22:12:31.822Z,16.50
2018-03-06T22:15:00.795Z,16.27
2018-03-06T22:17:30.285Z,16.40
2018-03-06T22:19:58.254Z,17.37
2018-03-06T22:22:26.140Z,14.23
2018-03-06T22:24:54.915Z,15.67
2018-03-06T22:27:22.962Z,16.77
2018-03-06T22:29:50.701Z,18.10
2018-03-06T22:32:18.793Z,16.27
2018-03-06T22:34:46.658Z,14.83
2018-03-06T22:37:16.263Z,15.67
2018-03-06T22:39:44.163Z,14.90
2018-03-06T22:42:11.983Z,14.90
2018-03-06T22:44:39.868Z,18.27
2018-03-06T22:47:08.675Z,17.80
2018-03-06T22:49:36.450Z,18.40
2018-03-06T22:52:07.467Z,22.97
2018-03-06T22:57:16.344Z,23.20
2018-03-06T22:59:44.733Z,24.00
2018-03-06T23:02:12.694Z,22.77
2018-03-06T23:04:40.662Z,23.23
2018-03-06T23:07:09.133Z,25.23
2018-03-06T23:09:37.082Z,21.47
2018-03-06T23:12:05.244Z,23.03
2018-03-06T23:14:33.126Z,27.00
2018-03-06T23:17:02.523Z,25.03
2018-03-06T23:19:30.426Z,28.33
2018-03-06T23:21:58.562Z,26.13
2018-03-06T23:24:26.741Z,25.97
2018-03-06T23:26:54.724Z,25.10
2018-03-06T23:29:22.809Z,24.93
2018-03-06T23:31:50.750Z,26.03
2018-03-06T23:34:19.301Z,26.27
2018-03-06T23:36:47.608Z,29.47
